createdAt,value
2023-02-11T00:01:01.649Z,2.79
2023-02-11T00:03:33.118Z,3.64
2023-02-11T00:06:16.936Z,4.43
2023-02-11T00:09:15.309Z,4.98
2023-02-11T00:11:43.899Z,5.46
2023-02-11T00:14:18.053Z,5.48
2023-02-11T00:16:51.814Z,4.64
2023-02-11T00:19:43.177Z,3.79
2023-02-11T00:22:11.725Z,3.18
2023-02-11T00:24:54.328Z,2.74
2023-02-11T00:27:22.906Z,2.43
2023-02-11T00:29:56.107Z,2.18
2023-02-11T00:32:26.590Z,1.95
2023-02-11T00:34:57.578Z,1.76
2023-02-11T00:37:29.422Z,1.59
2023-02-11T00:39:57.433Z,1.45
2023-02-11T00:42:25.661Z,2.06
2023-02-11T00:44:56.906Z,3.25
2023-02-11T00:47:32.778Z,4.07
2023-02-11T00:50:05.537Z,4.61
2023-02-11T00:52:34.398Z,5.00
2023-02-11T00:55:04.244Z,5.31
2023-02-11T00:57:34.557Z,5.48
2023-02-11T01:00:06.695Z,4.85
2023-02-11T01:02:36.013Z,3.95
2023-02-11T01:05:06.012Z,3.25
2023-02-11T01:07:54.551Z,2.82
2023-02-11T01:10:26.767Z,2.39
2023-02-11T01:12:57.600Z,2.09
2023-02-11T01:15:26.713Z,2.29
2023-02-11T01:17:57.974Z,3.32
2023-02-11T01:20:35.019Z,4.08
2023-02-11T01:23:11.417Z,4.59
2023-02-11T01:25:48.634Z,5.01
2023-02-11T01:28:23.533Z,4.74
2023-02-11T01:30:54.978Z,3.94
2023-02-11T01:33:26.091Z,3.18
2023-02-11T01:36:04.000Z,2.65
2023-02-11T01:38:32.790Z,2.28
2023-02-11T01:41:23.680Z,2.89
2023-02-11T01:43:52.278Z,3.68
2023-02-11T01:46:37.930Z,4.18
2023-02-11T01:49:12.717Z,4.63
2023-02-11T01:51:46.719Z,4.74
2023-02-11T01:54:44.043Z,4.27
2023-02-11T01:57:22.461Z,3.36
2023-02-11T02:00:25.138Z,2.77
2023-02-11T02:03:08.594Z,3.44
2023-02-11T02:06:24.876Z,4.23
2023-02-11T02:09:20.078Z,4.82
2023-02-11T02:11:51.730Z,5.24
2023-02-11T02:14:20.331Z,5.21
2023-02-11T02:16:48.699Z,4.29
2023-02-11T02:19:45.125Z,3.44
2023-02-11T02:23:15.910Z,2.88
2023-02-11T02:27:01.138Z,3.96
2023-02-11T02:30:29.365Z,4.61
2023-02-11T02:33:22.316Z,4.24
2023-02-11T02:36:12.198Z,3.37
2023-02-11T02:39:04.965Z,2.69
2023-02-11T02:41:36.168Z,2.55
2023-02-11T02:44:13.172Z,3.24
2023-02-11T02:46:44.876Z,3.98
2023-02-11T02:49:16.957Z,4.23
2023-02-11T02:51:56.774Z,4.54
2023-02-11T02:55:12.939Z,4.35
2023-02-11T02:58:29.191Z,3.44
2023-02-11T03:01:28.193Z,2.62
2023-02-11T03:04:27.242Z,2.36
2023-02-11T03:07:03.382Z,3.26
2023-02-11T03:09:40.673Z,3.92
2023-02-11T03:12:12.081Z,4.36
2023-02-11T03:14:41.115Z,4.51
2023-02-11T03:17:12.111Z,3.86
2023-02-11T03:19:44.942Z,3.07
2023-02-11T03:23:24.791Z,2.54
2023-02-11T03:26:06.179Z,2.68
2023-02-11T03:29:10.453Z,3.56
2023-02-11T03:32:30.227Z,4.28
2023-02-11T03:35:12.543Z,4.80
2023-02-11T03:37:55.741Z,4.81
2023-02-11T03:40:55.587Z,3.97
2023-02-11T03:43:58.286Z,3.04
2023-02-11T03:46:39.949Z,2.40
2023-02-11T03:49:25.114Z,2.02
2023-02-11T03:51:58.921Z,2.23
2023-02-11T03:54:37.432Z,3.11
2023-02-11T03:57:16.778Z,3.81
2023-02-11T04:00:01.018Z,4.31
2023-02-11T04:02:45.760Z,4.53
2023-02-11T04:05:27.263Z,4.04
2023-02-11T04:08:03.844Z,3.26
2023-02-11T04:10:35.692Z,2.59
2023-02-11T04:13:22.519Z,2.10
2023-02-11T04:16:12.049Z,1.84
2023-02-11T04:18:40.647Z,2.66
2023-02-11T04:21:14.590Z,3.60
2023-02-11T04:24:17.192Z,4.15
2023-02-11T04:27:11.207Z,4.57
2023-02-11T04:30:01.533Z,3.94
2023-02-11T04:32:54.959Z,3.00
2023-02-11T04:35:32.667Z,2.28
2023-02-11T04:38:03.107Z,2.16
2023-02-11T04:40:37.226Z,3.00
2023-02-11T04:43:07.863Z,3.67
2023-02-11T04:45:36.505Z,4.16
2023-02-11T04:48:10.343Z,4.26
2023-02-11T04:50:41.870Z,3.48
2023-02-11T04:53:10.163Z,2.62
2023-02-11T04:55:38.639Z,2.03
2023-02-11T04:58:07.354Z,2.19
2023-02-11T05:00:35.509Z,3.04
2023-02-11T05:03:09.922Z,3.58
2023-02-11T05:05:45.186Z,3.98
2023-02-11T05:08:13.744Z,3.68
2023-02-11T05:10:47.383Z,2.80
2023-02-11T05:13:18.179Z,2.05
2023-02-11T05:15:46.452Z,1.59
2023-02-11T05:18:22.266Z,2.05
2023-02-11T05:20:50.685Z,2.86
2023-02-11T05:23:21.411Z,3.26
2023-02-11T05:25:52.857Z,3.62
2023-02-11T05:28:24.098Z,3.27
2023-02-11T05:30:55.511Z,2.49
2023-02-11T05:33:26.190Z,1.85
2023-02-11T05:36:18.528Z,1.41
2023-02-11T05:38:52.953Z,2.05
2023-02-11T05:41:43.921Z,2.90
2023-02-11T05:44:14.787Z,3.32
2023-02-11T05:46:53.099Z,3.06
2023-02-11T05:49:21.684Z,2.14
2023-02-11T05:52:01.228Z,1.52
2023-02-11T05:54:29.601Z,1.83
2023-02-11T05:57:15.897Z,2.44
2023-02-11T05:59:49.699Z,3.02
2023-02-11T06:02:34.106Z,3.17
2023-02-11T06:05:11.207Z,2.44
2023-02-11T06:07:39.501Z,1.62
2023-02-11T06:10:08.560Z,1.14
2023-02-11T06:12:41.901Z,0.86
2023-02-11T06:15:09.970Z,1.50
2023-02-11T06:17:49.706Z,2.32
2023-02-11T06:20:20.880Z,2.95
2023-02-11T06:22:49.540Z,3.27
2023-02-11T06:25:18.327Z,2.72
2023-02-11T06:27:51.931Z,1.94
2023-02-11T06:30:25.433Z,1.37
2023-02-11T06:32:57.771Z,1.01
2023-02-11T06:35:29.146Z,1.50
2023-02-11T06:38:00.641Z,2.23
2023-02-11T06:40:31.371Z,2.61
2023-02-11T06:43:02.743Z,2.23
2023-02-11T06:45:34.333Z,1.59
2023-02-11T06:48:05.446Z,1.13
2023-02-11T06:50:33.994Z,0.82
2023-02-11T06:53:13.284Z,0.70
2023-02-11T06:55:41.568Z,1.47
2023-02-11T06:58:26.048Z,2.51
2023-02-11T07:00:54.699Z,3.24
2023-02-11T07:03:26.004Z,3.38
2023-02-11T07:06:21.666Z,2.71
2023-02-11T07:08:49.874Z,2.06
2023-02-11T07:11:47.222Z,1.68
2023-02-11T07:14:18.744Z,1.41
2023-02-11T07:16:46.914Z,1.28
2023-02-11T07:19:26.379Z,2.14
2023-02-11T07:22:21.147Z,3.14
2023-02-11T07:24:55.210Z,3.00
2023-02-11T07:27:26.919Z,2.35
2023-02-11T07:29:58.157Z,1.89
2023-02-11T07:32:35.968Z,1.65
2023-02-11T07:35:05.515Z,1.45
2023-02-11T07:37:39.268Z,1.29
2023-02-11T07:40:11.782Z,1.19
2023-02-11T07:42:42.675Z,1.11
2023-02-11T07:45:14.340Z,1.41
2023-02-11T07:47:43.122Z,2.60
2023-02-11T07:50:18.060Z,3.16
2023-02-11T07:52:51.955Z,3.09
2023-02-11T07:55:31.187Z,2.99
2023-02-11T07:58:24.892Z,2.95
2023-02-11T08:01:30.016Z,2.80
2023-02-11T08:04:05.228Z,2.59
2023-02-11T08:06:38.127Z,2.42
2023-02-11T08:09:26.124Z,2.30
2023-02-11T08:12:03.338Z,2.15
2023-02-11T08:15:00.495Z,1.98
2023-02-11T08:17:28.889Z,1.99
2023-02-11T08:20:03.857Z,2.06
2023-02-11T08:22:54.458Z,2.22
2023-02-11T08:26:27.477Z,2.35
2023-02-11T08:29:28.578Z,2.38
2023-02-11T08:32:16.345Z,2.38
2023-02-11T08:34:51.990Z,2.38
2023-02-11T08:37:20.605Z,2.43
2023-02-11T08:39:58.188Z,2.50
2023-02-11T08:42:26.463Z,2.52
2023-02-11T08:45:06.412Z,2.52
2023-02-11T08:47:38.071Z,2.55
2023-02-11T08:50:07.240Z,2.59
2023-02-11T08:52:58.783Z,2.65
2023-02-11T08:55:27.064Z,2.70
2023-02-11T08:57:57.914Z,2.82
2023-02-11T09:00:26.414Z,2.91
2023-02-11T09:02:55.570Z,2.92
2023-02-11T09:05:29.170Z,2.95
2023-02-11T09:08:00.011Z,3.05
2023-02-11T09:10:34.661Z,3.10
2023-02-11T09:13:03.212Z,3.14
2023-02-11T09:15:33.705Z,3.20
2023-02-11T09:18:21.286Z,3.22
2023-02-11T09:20:52.984Z,3.40
2023-02-11T09:23:21.496Z,3.54
2023-02-11T09:25:55.415Z,3.65
2023-02-11T09:28:26.923Z,3.76
2023-02-11T09:30:57.719Z,3.87
2023-02-11T09:33:27.246Z,3.96
2023-02-11T09:35:55.781Z,4.02
2023-02-11T09:38:33.208Z,3.98
2023-02-11T09:41:24.856Z,3.83
2023-02-11T09:43:57.534Z,3.78
2023-02-11T09:46:31.546Z,3.78
2023-02-11T09:48:59.964Z,3.89
2023-02-11T09:51:54.766Z,4.02
2023-02-11T09:54:51.093Z,4.08
2023-02-11T09:57:28.591Z,3.99
2023-02-11T10:01:14.057Z,3.81
2023-02-11T10:03:59.576Z,3.62
2023-02-11T10:06:55.704Z,3.51
2023-02-11T10:09:52.729Z,3.49
2023-02-11T10:12:29.402Z,3.52
2023-02-11T10:15:21.825Z,3.57
2023-02-11T10:18:21.807Z,3.59
2023-02-11T10:21:34.682Z,3.63
2023-02-11T10:24:06.388Z,3.70
2023-02-11T10:26:43.931Z,3.73
2023-02-11T10:29:40.487Z,3.80
2023-02-11T10:32:22.991Z,3.93
2023-02-11T10:34:51.656Z,4.13
2023-02-11T10:37:22.782Z,4.31
2023-02-11T10:39:54.106Z,4.49
2023-02-11T10:42:22.732Z,4.55
2023-02-11T10:45:03.616Z,4.55
2023-02-11T10:47:37.591Z,4.51
2023-02-11T10:50:47.475Z,4.54
2023-02-11T10:53:22.315Z,4.63
2023-02-11T10:56:03.526Z,4.58
2023-02-11T10:58:56.523Z,4.41
2023-02-11T11:01:49.287Z,4.38
2023-02-11T11:04:33.948Z,4.33
2023-02-11T11:07:27.398Z,4.19
2023-02-11T11:10:06.256Z,4.08
2023-02-11T11:12:49.650Z,4.09
2023-02-11T11:15:28.111Z,4.15
2023-02-11T11:18:22.518Z,4.19
2023-02-11T11:21:12.902Z,4.25
2023-02-11T11:23:41.178Z,4.30
2023-02-11T11:26:55.474Z,4.41
2023-02-11T11:29:48.443Z,4.66
2023-02-11T11:32:24.097Z,4.75
2023-02-11T11:34:59.623Z,4.73
2023-02-11T11:37:46.840Z,4.65
2023-02-11T11:40:23.705Z,4.47
2023-02-11T11:43:21.331Z,4.26
2023-02-11T11:46:00.469Z,4.08
2023-02-11T11:48:55.378Z,3.97
2023-02-11T11:51:26.530Z,3.96
2023-02-11T11:54:01.730Z,3.96
2023-02-11T11:56:35.010Z,3.89
2023-02-11T11:59:11.575Z,3.87
2023-02-11T12:02:03.524Z,3.86
2023-02-11T12:05:00.961Z,3.78
2023-02-11T12:08:23.377Z,3.80
2023-02-11T12:11:27.696Z,3.77
2023-02-11T12:14:40.929Z,3.72
2023-02-11T12:18:04.137Z,3.67
2023-02-11T12:21:16.022Z,3.63
2023-02-11T12:24:29.653Z,3.54
2023-02-11T12:27:26.283Z,3.41
2023-02-11T12:30:15.585Z,3.39
2023-02-11T12:33:20.163Z,3.32
2023-02-11T12:36:02.649Z,3.37
2023-02-11T12:38:40.481Z,3.36
2023-02-11T12:41:56.107Z,3.36
2023-02-11T12:44:51.980Z,3.35
2023-02-11T12:47:47.108Z,3.36
2023-02-11T12:50:39.183Z,3.31
2023-02-11T12:53:47.655Z,3.24
2023-02-11T12:56:29.727Z,3.19
2023-02-11T12:58:59.313Z,3.12
2023-02-11T13:01:30.852Z,3.07
2023-02-11T13:04:13.088Z,3.07
2023-02-11T13:06:47.098Z,3.12
2023-02-11T13:09:29.296Z,3.14
2023-02-11T13:12:19.115Z,3.08
2023-02-11T13:14:47.579Z,3.07
2023-02-11T13:18:21.995Z,3.81
2023-02-11T13:22:02.869Z,5.01
2023-02-11T13:25:06.777Z,4.43
2023-02-11T13:27:51.454Z,3.89
2023-02-11T13:30:37.175Z,3.58
2023-02-11T13:33:14.712Z,3.46
2023-02-11T13:36:11.222Z,4.30
2023-02-11T13:38:39.727Z,5.18
2023-02-11T13:41:29.539Z,5.09
2023-02-11T13:44:30.248Z,4.43
2023-02-11T13:47:02.494Z,3.90
2023-02-11T13:50:19.720Z,4.52
2023-02-11T13:53:44.961Z,5.72
2023-02-11T13:56:40.847Z,5.09
2023-02-11T13:59:27.704Z,4.38
2023-02-11T14:02:41.132Z,3.98
2023-02-11T14:05:31.293Z,4.87
2023-02-11T14:08:32.650Z,5.57
2023-02-11T14:11:12.480Z,5.93
2023-02-11T14:13:54.897Z,5.63
2023-02-11T14:16:37.316Z,4.71
2023-02-11T14:19:17.564Z,5.13
2023-02-11T14:21:45.838Z,5.67
2023-02-11T14:24:14.733Z,5.90
2023-02-11T14:27:05.941Z,6.12
2023-02-11T14:29:53.579Z,6.27
2023-02-11T14:33:05.328Z,5.72
2023-02-11T14:36:33.942Z,4.57
2023-02-11T14:39:20.463Z,4.69
2023-02-11T14:41:49.348Z,5.29
2023-02-11T14:44:35.527Z,5.58
2023-02-11T14:47:07.301Z,5.78
2023-02-11T14:49:56.331Z,5.98
2023-02-11T14:52:33.240Z,6.20
2023-02-11T14:55:55.273Z,6.32
2023-02-11T14:58:32.265Z,6.35
2023-02-11T15:01:03.940Z,5.81
2023-02-11T15:03:40.891Z,4.89
2023-02-11T15:06:20.967Z,4.33
2023-02-11T15:08:56.528Z,5.23
2023-02-11T15:11:25.783Z,5.73
2023-02-11T15:13:57.276Z,5.90
2023-02-11T15:16:27.626Z,6.14
2023-02-11T15:19:04.471Z,5.87
2023-02-11T15:21:34.858Z,6.06
2023-02-11T15:24:25.631Z,6.32
2023-02-11T15:27:19.032Z,6.43
2023-02-11T15:29:50.649Z,6.56
2023-02-11T15:32:25.935Z,6.49
2023-02-11T15:34:54.755Z,6.44
2023-02-11T15:37:43.202Z,6.46
2023-02-11T15:40:19.158Z,6.51
2023-02-11T15:43:02.877Z,6.53
2023-02-11T15:45:56.822Z,6.43
2023-02-11T15:49:21.634Z,6.54
2023-02-11T15:51:55.896Z,6.53
2023-02-11T15:54:47.766Z,6.44
2023-02-11T15:57:19.424Z,6.50
2023-02-11T16:00:28.449Z,6.49
2023-02-11T16:03:05.742Z,6.63
2023-02-11T16:06:43.848Z,6.62
2023-02-11T16:09:26.979Z,6.66
2023-02-11T16:12:27.229Z,6.70
2023-02-11T16:15:00.183Z,6.76
2023-02-11T16:17:50.835Z,6.74
2023-02-11T16:20:55.716Z,6.72
2023-02-11T16:23:36.381Z,6.66
2023-02-11T16:26:31.280Z,6.60
2023-02-11T16:29:33.398Z,6.64
2023-02-11T16:32:28.724Z,6.48
2023-02-11T16:35:05.633Z,6.54
2023-02-11T16:38:00.534Z,6.42
2023-02-11T16:40:34.788Z,6.45
2023-02-11T16:43:03.636Z,6.43
2023-02-11T16:45:32.455Z,6.47
2023-02-11T16:49:01.553Z,6.52
2023-02-11T16:51:51.921Z,6.54
2023-02-11T16:54:52.727Z,6.58
2023-02-11T16:57:24.095Z,6.58
2023-02-11T17:00:03.541Z,6.48
2023-02-11T17:02:42.718Z,6.59
2023-02-11T17:06:03.385Z,6.62
2023-02-11T17:08:32.364Z,6.49
2023-02-11T17:11:04.227Z,6.43
2023-02-11T17:13:37.006Z,6.50
2023-02-11T17:16:33.943Z,6.56
2023-02-11T17:19:02.960Z,6.65
2023-02-11T17:22:01.637Z,6.61
2023-02-11T17:24:42.040Z,6.72
2023-02-11T17:27:23.538Z,6.74
2023-02-11T17:29:52.268Z,6.87
2023-02-11T17:32:29.852Z,6.97
2023-02-11T17:35:01.575Z,6.98
2023-02-11T17:37:33.082Z,6.93
2023-02-11T17:40:21.740Z,7.02
2023-02-11T17:42:53.620Z,7.00
2023-02-11T17:45:24.904Z,6.81
2023-02-11T17:47:55.576Z,6.73
2023-02-11T17:50:29.205Z,6.81
2023-02-11T17:52:57.930Z,6.93
2023-02-11T17:55:26.652Z,6.68
2023-02-11T17:57:55.819Z,6.52
2023-02-11T18:00:28.602Z,6.43
2023-02-11T18:03:03.595Z,6.48
2023-02-11T18:05:36.710Z,6.72
2023-02-11T18:08:08.784Z,6.90
2023-02-11T18:10:40.307Z,6.88
2023-02-11T18:13:11.385Z,6.93
2023-02-11T18:15:47.707Z,6.96
2023-02-11T18:18:19.095Z,6.96
2023-02-11T18:21:02.070Z,6.88
2023-02-11T18:23:39.567Z,6.91
2023-02-11T18:26:12.379Z,6.94
2023-02-11T18:28:45.829Z,6.92
2023-02-11T18:31:43.615Z,6.96
2023-02-11T18:34:19.720Z,6.91
2023-02-11T18:37:17.372Z,6.61
2023-02-11T18:39:51.491Z,6.81
2023-02-11T18:42:22.421Z,6.91
2023-02-11T18:44:53.162Z,6.80
2023-02-11T18:47:48.056Z,6.82
2023-02-11T18:50:22.404Z,6.90
2023-02-11T18:52:57.170Z,6.78
2023-02-11T18:55:26.059Z,6.66
2023-02-11T18:57:57.335Z,6.69
2023-02-11T19:00:28.647Z,6.70
2023-02-11T19:03:00.641Z,6.83
2023-02-11T19:05:33.629Z,6.63
2023-02-11T19:08:07.558Z,6.55
2023-02-11T19:10:57.275Z,6.65
2023-02-11T19:13:52.365Z,6.54
2023-02-11T19:16:21.225Z,6.66
2023-02-11T19:18:49.786Z,6.69
2023-02-11T19:21:24.000Z,6.82
2023-02-11T19:24:16.265Z,6.94
2023-02-11T19:27:11.034Z,6.97
2023-02-11T19:29:58.282Z,6.92
2023-02-11T19:32:26.708Z,7.11
2023-02-11T19:34:58.342Z,7.00
2023-02-11T19:37:28.916Z,6.95
2023-02-11T19:40:22.073Z,6.89
2023-02-11T19:43:01.117Z,6.95
2023-02-11T19:45:50.627Z,6.88
2023-02-11T19:48:21.918Z,6.83
2023-02-11T19:51:39.763Z,6.88
2023-02-11T19:54:47.970Z,6.96
2023-02-11T19:58:06.215Z,6.74
2023-02-11T20:01:24.339Z,6.92
2023-02-11T20:05:13.939Z,6.97
2023-02-11T20:07:45.804Z,6.99
2023-02-11T20:10:55.653Z,6.83
2023-02-11T20:13:58.514Z,6.98
2023-02-11T20:16:48.193Z,6.92
2023-02-11T20:19:43.520Z,7.02
2023-02-11T20:22:40.857Z,6.82
2023-02-11T20:25:42.714Z,6.82
2023-02-11T20:29:16.978Z,6.94
2023-02-11T20:31:58.670Z,6.72
2023-02-11T20:34:49.042Z,6.90
2023-02-11T20:37:26.531Z,6.91
2023-02-11T20:40:15.184Z,7.03
2023-02-11T20:42:48.473Z,7.19
2023-02-11T20:45:25.487Z,7.25
2023-02-11T20:48:03.194Z,7.32
2023-02-11T20:50:35.118Z,7.33
2023-02-11T20:53:06.503Z,7.38
2023-02-11T20:55:38.617Z,7.34
2023-02-11T20:58:12.743Z,7.28
2023-02-11T21:01:21.188Z,7.10
2023-02-11T21:04:09.274Z,7.19
2023-02-11T21:06:43.597Z,7.31
2023-02-11T21:09:15.207Z,7.33
2023-02-11T21:11:46.920Z,7.19
2023-02-11T21:14:15.718Z,7.27
2023-02-11T21:16:47.569Z,7.40
2023-02-11T21:19:16.253Z,7.45
2023-02-11T21:21:57.464Z,7.41
2023-02-11T21:24:28.778Z,7.26
2023-02-11T21:27:03.249Z,7.25
2023-02-11T21:29:36.691Z,7.14
2023-02-11T21:32:22.503Z,6.99
2023-02-11T21:35:00.027Z,7.11
2023-02-11T21:37:33.471Z,7.21
2023-02-11T21:40:05.142Z,7.24
2023-02-11T21:42:39.138Z,7.15
2023-02-11T21:45:10.744Z,7.19
2023-02-11T21:47:39.068Z,7.27
2023-02-11T21:50:11.564Z,7.27
2023-02-11T21:53:04.294Z,7.29
2023-02-11T21:55:36.960Z,7.15
2023-02-11T21:58:08.006Z,7.04
2023-02-11T22:00:43.918Z,7.08
2023-02-11T22:03:27.818Z,7.15
2023-02-11T22:06:16.544Z,7.02
2023-02-11T22:08:52.421Z,7.09
2023-02-11T22:11:41.073Z,7.09
2023-02-11T22:14:12.308Z,7.12
2023-02-11T22:16:44.173Z,6.90
2023-02-11T22:19:15.719Z,7.08
2023-02-11T22:22:29.209Z,7.08
2023-02-11T22:25:02.046Z,7.17
2023-02-11T22:27:56.959Z,7.27
2023-02-11T22:31:19.104Z,7.26
2023-02-11T22:33:50.491Z,7.31
2023-02-11T22:36:29.454Z,7.19
2023-02-11T22:39:04.208Z,7.06
2023-02-11T22:42:00.255Z,6.98
2023-02-11T22:44:48.637Z,7.06
2023-02-11T22:47:17.015Z,7.04
2023-02-11T22:49:48.174Z,7.10
2023-02-11T22:53:13.084Z,7.26
2023-02-11T22:55:46.970Z,7.32
2023-02-11T22:58:38.219Z,7.22
2023-02-11T23:01:27.099Z,7.24
2023-02-11T23:03:55.677Z,7.37
2023-02-11T23:06:24.184Z,7.50
2023-02-11T23:09:09.941Z,7.44
2023-02-11T23:11:44.146Z,7.30
2023-02-11T23:14:25.489Z,7.38
2023-02-11T23:17:16.902Z,7.43
2023-02-11T23:20:06.028Z,7.42
2023-02-11T23:22:49.447Z,7.50
2023-02-11T23:26:30.762Z,7.24
2023-02-11T23:29:12.322Z,7.23
2023-02-11T23:31:44.035Z,7.11
2023-02-11T23:35:30.989Z,7.26
2023-02-11T23:38:07.638Z,7.48
2023-02-11T23:40:44.087Z,7.49
2023-02-11T23:43:15.608Z,7.46
2023-02-11T23:45:46.962Z,7.41
2023-02-11T23:48:36.072Z,7.44
2023-02-11T23:51:11.185Z,7.44
2023-02-11T23:54:12.226Z,7.46
2023-02-11T23:56:42.384Z,7.63
2023-02-11T23:59:51.479Z,7.73
